createdAt,value
2022-09-25T00:01:32.651Z,99.90
2022-09-25T00:04:00.079Z,99.90
2022-09-25T00:06:28.784Z,99.90
2022-09-25T00:08:56.798Z,99.90
2022-09-25T00:11:29.696Z,99.90
2022-09-25T00:13:57.477Z,99.90
2022-09-25T00:16:28.094Z,99.90
2022-09-25T00:19:14.972Z,99.90
2022-09-25T00:21:42.527Z,99.90
2022-09-25T09:21:19.226Z,99.90
2022-09-25T09:23:58.550Z,99.90
2022-09-25T09:26:50.131Z,99.90
2022-09-25T09:29:33.606Z,99.90
2022-09-25T09:32:18.464Z,99.60
2022-09-25T09:35:33.617Z,99.60
2022-09-25T09:38:16.619Z,99.70
2022-09-25T09:41:14.083Z,99.90
2022-09-25T09:44:02.441Z,99.90
2022-09-25T09:46:35.036Z,99.10
2022-09-25T09:49:09.285Z,99.60
2022-09-25T09:51:41.078Z,99.90
2022-09-25T09:54:17.906Z,99.90
2022-09-25T09:56:49.831Z,99.20
2022-09-25T09:59:22.650Z,99.30
2022-09-25T10:02:03.663Z,99.10
2022-09-25T10:04:36.456Z,99.30
2022-09-25T10:07:15.023Z,99.20
2022-09-25T10:09:42.969Z,98.30
2022-09-25T10:12:22.525Z,98.60
2022-09-25T10:14:49.843Z,98.00
2022-09-25T10:17:18.320Z,98.20
2022-09-25T10:19:55.703Z,97.90
2022-09-25T10:22:27.153Z,97.90
2022-09-25T10:25:02.107Z,98.00
2022-09-25T10:27:36.492Z,97.30
2022-09-25T10:30:06.554Z,97.10
2022-09-25T10:32:57.941Z,97.40
2022-09-25T10:35:38.515Z,98.70
2022-09-25T10:38:19.148Z,99.00
2022-09-25T10:40:57.072Z,99.10
2022-09-25T10:43:24.277Z,99.20
2022-09-25T10:46:09.799Z,99.50
2022-09-25T10:48:56.635Z,99.80
2022-09-25T10:51:24.440Z,99.90
2022-09-25T10:53:53.833Z,99.90
2022-09-25T10:56:27.315Z,99.60
2022-09-25T10:58:58.049Z,99.90
2022-09-25T11:01:40.083Z,99.80
2022-09-25T11:04:30.829Z,99.90
2022-09-25T11:07:04.918Z,99.90
2022-09-25T11:09:33.862Z,99.90
2022-09-25T11:12:13.652Z,99.90
2022-09-25T11:14:51.417Z,99.90
2022-09-25T11:17:37.886Z,99.90
2022-09-25T11:20:17.681Z,99.90
2022-09-25T11:22:50.138Z,99.30
2022-09-25T11:25:47.074Z,98.70
2022-09-25T11:28:40.681Z,97.90
2022-09-25T11:31:28.779Z,98.00
2022-09-25T11:34:32.714Z,97.20
2022-09-25T11:37:09.090Z,97.40
2022-09-25T11:40:06.951Z,96.90
2022-09-25T11:42:48.325Z,97.00
2022-09-25T11:45:22.020Z,96.30
2022-09-25T11:47:55.143Z,95.40
2022-09-25T11:50:32.225Z,94.60
2022-09-25T11:53:33.556Z,95.70
2022-09-25T11:56:25.524Z,95.90
2022-09-25T11:59:17.995Z,95.60
2022-09-25T12:01:57.988Z,95.00
2022-09-25T12:04:38.057Z,95.00
2022-09-25T12:07:40.681Z,94.40
2022-09-25T12:10:23.284Z,93.70
2022-09-25T12:12:59.462Z,95.10
2022-09-25T12:15:42.230Z,95.30
2022-09-25T12:18:34.427Z,95.30
2022-09-25T12:21:07.963Z,95.70
2022-09-25T12:23:56.219Z,95.40
2022-09-25T12:26:41.225Z,95.70
2022-09-25T12:29:26.085Z,96.20
2022-09-25T12:32:14.151Z,96.30
2022-09-25T12:34:49.791Z,96.00
2022-09-25T12:37:43.772Z,96.30
2022-09-25T12:40:19.619Z,96.40
2022-09-25T12:43:04.787Z,96.20
2022-09-25T12:45:49.991Z,96.50
2022-09-25T12:48:31.062Z,96.50
2022-09-25T12:51:22.634Z,96.80
2022-09-25T12:53:50.930Z,96.50
2022-09-25T12:56:30.179Z,96.00
2022-09-25T12:59:11.305Z,95.70
2022-09-25T13:01:48.960Z,96.00
2022-09-25T13:04:40.468Z,96.20
2022-09-25T13:07:30.955Z,96.00
2022-09-25T13:09:57.992Z,95.80
2022-09-25T13:12:32.757Z,95.60
2022-09-25T13:15:10.469Z,96.10
2022-09-25T13:17:38.509Z,96.00
2022-09-25T13:20:26.825Z,95.20
2022-09-25T13:22:57.705Z,95.60
2022-09-25T13:25:25.600Z,95.00
2022-09-25T13:27:54.213Z,95.30
2022-09-25T13:30:28.028Z,95.60
2022-09-25T13:33:03.340Z,95.30
2022-09-25T13:35:33.908Z,94.70
2022-09-25T13:38:48.354Z,94.80
2022-09-25T13:41:15.770Z,94.60
2022-09-25T13:43:42.691Z,94.40
2022-09-25T13:46:21.685Z,94.60
2022-09-25T13:48:52.621Z,94.60
2022-09-25T13:51:22.573Z,94.50
2022-09-25T13:53:56.580Z,94.10
2022-09-25T13:56:26.571Z,93.80
2022-09-25T13:59:10.372Z,93.60
2022-09-25T14:01:39.360Z,94.20
2022-09-25T14:04:34.446Z,92.80
2022-09-25T14:07:13.117Z,92.50
2022-09-25T14:09:45.957Z,93.50
2022-09-25T14:12:45.929Z,92.20
2022-09-25T14:15:23.049Z,93.80
2022-09-25T14:17:52.982Z,93.90
2022-09-25T14:20:42.064Z,93.00
2022-09-25T14:23:20.724Z,92.80
2022-09-25T14:25:58.195Z,92.60
2022-09-25T14:28:28.484Z,92.90
2022-09-25T14:31:23.466Z,92.60
2022-09-25T14:34:15.471Z,92.90
2022-09-25T14:37:06.971Z,93.00
2022-09-25T14:39:45.813Z,92.90
2022-09-25T14:42:32.490Z,93.20
2022-09-25T14:45:06.447Z,93.60
2022-09-25T14:51:25.830Z,93.40
2022-09-25T14:54:01.588Z,93.40
2022-09-25T14:56:34.335Z,92.70
2022-09-25T14:59:19.924Z,93.50
2022-09-25T15:01:52.102Z,93.60
2022-09-25T15:04:28.139Z,94.00
2022-09-25T15:07:16.617Z,94.10
2022-09-25T15:09:48.465Z,94.40
2022-09-25T15:12:26.000Z,94.70
2022-09-25T15:14:58.760Z,95.00
2022-09-25T15:17:27.774Z,95.20
2022-09-25T15:19:57.545Z,95.50
2022-09-25T15:22:28.612Z,95.40
2022-09-25T15:24:59.194Z,95.60
2022-09-25T15:27:28.313Z,95.40
2022-09-25T15:29:56.559Z,95.70
2022-09-25T15:32:37.623Z,95.80
2022-09-25T15:35:17.415Z,96.00
2022-09-25T15:37:46.340Z,96.00
2022-09-25T15:40:26.001Z,95.80
2022-09-25T15:43:00.102Z,95.80
2022-09-25T15:45:32.949Z,95.80
2022-09-25T15:48:01.933Z,96.00
2022-09-25T15:50:30.176Z,96.00
2022-09-25T15:53:00.625Z,96.10
2022-09-25T15:55:31.608Z,96.20
2022-09-25T15:58:07.424Z,96.00
2022-09-25T16:00:53.193Z,96.50
2022-09-25T16:03:42.454Z,96.20
2022-09-25T16:06:18.602Z,96.20
2022-09-25T16:08:45.586Z,95.80
2022-09-25T16:11:26.168Z,95.00
2022-09-25T16:14:12.039Z,95.00
2022-09-25T16:16:47.087Z,95.50
2022-09-25T16:19:25.691Z,94.80
2022-09-25T16:21:53.726Z,94.40
2022-09-25T16:24:30.754Z,94.70
2022-09-25T16:27:02.684Z,94.70
2022-09-25T16:29:35.097Z,95.20
2022-09-25T16:32:08.085Z,95.10
2022-09-25T16:34:38.368Z,95.70
2022-09-25T16:37:08.462Z,96.10
2022-09-25T16:39:39.490Z,94.90
2022-09-25T16:42:26.088Z,94.30
2022-09-25T16:45:04.026Z,94.60
2022-09-25T16:47:31.138Z,94.60
2022-09-25T16:49:58.148Z,94.60
2022-09-25T16:52:34.853Z,94.20
2022-09-25T16:55:10.145Z,94.40
2022-09-25T16:57:41.338Z,94.30
2022-09-25T17:00:18.689Z,94.30
2022-09-25T17:02:47.525Z,94.20
2022-09-25T17:05:27.698Z,93.80
2022-09-25T17:08:00.403Z,94.20
2022-09-25T17:10:31.730Z,94.20
2022-09-25T17:13:01.691Z,94.40
2022-09-25T17:15:33.095Z,94.30
2022-09-25T17:18:02.121Z,94.50
2022-09-25T17:20:31.168Z,94.60
2022-09-25T17:23:00.173Z,94.60
2022-09-25T17:25:52.925Z,94.70
2022-09-25T17:28:19.819Z,94.90
2022-09-25T17:30:46.769Z,95.00
2022-09-25T17:33:19.035Z,95.10
2022-09-25T17:36:06.890Z,95.00
2022-09-25T17:38:34.432Z,95.20
2022-09-25T17:41:07.447Z,95.30
2022-09-25T17:43:34.466Z,95.20
2022-09-25T17:46:01.603Z,95.30
2022-09-25T17:48:31.888Z,95.40
2022-09-25T17:51:02.626Z,95.50
2022-09-25T17:53:33.782Z,95.60
2022-09-25T17:56:01.591Z,95.70
2022-09-25T17:58:30.162Z,95.70
2022-09-25T18:00:59.732Z,95.80
2022-09-25T18:03:28.334Z,95.90
2022-09-25T18:05:55.336Z,96.00
2022-09-25T18:08:22.382Z,96.00
2022-09-25T18:10:53.462Z,96.20
2022-09-25T18:13:41.346Z,96.40
2022-09-25T18:16:42.692Z,96.50
2022-09-25T18:23:35.286Z,96.70
2022-09-25T18:26:12.638Z,96.70
2022-09-25T18:41:29.630Z,96.60
2022-09-25T19:24:45.058Z,96.20
2022-09-25T19:51:59.094Z,98.00
2022-09-25T19:54:35.766Z,98.40
2022-09-25T20:38:25.213Z,99.50
2022-09-25T21:13:13.876Z,99.90
2022-09-25T21:15:44.478Z,99.90
2022-09-25T21:18:12.130Z,99.90
2022-09-25T21:20:39.183Z,99.90
2022-09-25T21:23:06.720Z,99.90
2022-09-25T21:25:34.206Z,99.90
2022-09-25T21:28:01.659Z,99.90
2022-09-25T21:30:28.822Z,99.90
2022-09-25T21:32:55.803Z,99.90
2022-09-25T21:35:22.671Z,99.90
2022-09-25T21:37:49.852Z,99.90
2022-09-25T21:40:16.809Z,99.90
2022-09-25T21:42:43.817Z,99.90
2022-09-25T21:45:11.030Z,99.90
2022-09-25T21:47:38.541Z,99.90
2022-09-25T21:50:09.311Z,99.90
2022-09-25T21:52:39.441Z,99.90
2022-09-25T21:55:07.084Z,99.90
2022-09-25T21:57:33.917Z,99.90
2022-09-25T22:00:01.252Z,99.90
2022-09-25T22:02:31.377Z,99.90
2022-09-25T22:04:58.298Z,99.90
2022-09-25T22:07:25.480Z,99.90
2022-09-25T22:09:52.544Z,99.90
2022-09-25T22:12:19.352Z,99.90
2022-09-25T22:14:46.434Z,99.90
2022-09-25T22:17:13.349Z,99.90
2022-09-25T22:19:40.743Z,99.90
2022-09-25T22:22:07.783Z,99.90
2022-09-25T22:24:34.800Z,99.90
2022-09-25T22:27:02.127Z,99.90
2022-09-25T22:29:30.028Z,99.90
2022-09-25T22:31:56.915Z,99.90
2022-09-25T22:34:29.075Z,99.90
2022-09-25T22:36:59.969Z,99.90
2022-09-25T22:39:28.690Z,99.90
2022-09-25T22:41:56.380Z,99.90
2022-09-25T22:44:23.902Z,99.90
2022-09-25T22:46:51.374Z,99.90
2022-09-25T22:49:18.339Z,99.90
2022-09-25T22:51:45.656Z,99.90
2022-09-25T22:54:15.083Z,99.90
2022-09-25T22:56:42.933Z,99.90
2022-09-25T22:59:13.565Z,99.90
2022-09-25T23:01:46.638Z,99.90
2022-09-25T23:04:24.166Z,99.90
2022-09-25T23:06:51.963Z,99.90
2022-09-25T23:09:25.964Z,99.90
2022-09-25T23:11:57.212Z,99.90
2022-09-25T23:14:28.335Z,99.90
2022-09-25T23:16:55.996Z,99.90
2022-09-25T23:19:24.094Z,99.90
2022-09-25T23:21:52.870Z,99.90
2022-09-25T23:24:21.073Z,99.90
2022-09-25T23:26:48.364Z,99.90
2022-09-25T23:29:18.187Z,99.90
2022-09-25T23:31:46.373Z,99.90
2022-09-25T23:34:14.281Z,99.90
2022-09-25T23:36:41.849Z,99.90
2022-09-25T23:39:14.216Z,99.90
2022-09-25T23:41:41.712Z,99.90
2022-09-25T23:44:10.850Z,99.90
2022-09-25T23:46:40.603Z,99.90
2022-09-25T23:49:07.946Z,99.90
2022-09-25T23:51:35.415Z,99.90
2022-09-25T23:54:02.682Z,99.90
2022-09-25T23:56:32.276Z,99.90
2022-09-25T23:59:01.400Z,99.90
